EWG7LJ EDNY-EDXW
Flight info
| Callsign | EWG7LJ |
|---|---|
| Flight time | N/A |
| Altitude | 36000 |
| Route | ALAGO1E ALAGO DCT REUTL DCT LBU DCT ROLSO N851 RIMKI Z99 FUL/N0445F370 DCT ELLUM DCT WERRA DCT NORTA/N0439F360 Z595 NIE N850 IDEKO/N0440F370 DCT ELSOB Y348 OMWEG DCT BADOS |
| Aircraft | A319/M-SDE3FGHIRWY/LB1 |
Departure
| Time | 2026-04-21 10:44 |
|---|---|
| Airport | Bodensee Airport Friedrichshafen (EDNY) |
Arrival
| Time | N/A |
|---|---|
| Airport | Westerland Sylt Airport (EDXW) |
| Time | Latitude | Longitude | Altitude | Speed | Heading |
|---|---|---|---|---|---|
| 2026-04-21 10:09 | 47.67334 | 9.52303 | 1375 ft | 0 kts | 200° |
| 2026-04-21 10:36 | 47.67334 | 9.52302 | 1375 ft | 0 kts | 211° |
| 2026-04-21 10:36 | 47.67333 | 9.52298 | 1375 ft | 0 kts | 255° |
| 2026-04-21 10:37 | 47.67337 | 9.52292 | 1375 ft | 1 kts | 332° |
| 2026-04-21 10:37 | 47.67354 | 9.52282 | 1375 ft | 3 kts | 335° |
| 2026-04-21 10:37 | 47.67367 | 9.52249 | 1376 ft | 4 kts | 266° |
| 2026-04-21 10:37 | 47.67351 | 9.52196 | 1376 ft | 6 kts | 241° |
| 2026-04-21 10:38 | 47.67327 | 9.52131 | 1376 ft | 7 kts | 240° |
| 2026-04-21 10:38 | 47.67297 | 9.52053 | 1376 ft | 9 kts | 239° |
| 2026-04-21 10:38 | 47.67260 | 9.51962 | 1376 ft | 10 kts | 239° |
| 2026-04-21 10:38 | 47.67220 | 9.51859 | 1376 ft | 12 kts | 240° |
| 2026-04-21 10:39 | 47.67177 | 9.51745 | 1376 ft | 13 kts | 240° |
| 2026-04-21 10:39 | 47.67128 | 9.51621 | 1376 ft | 14 kts | 239° |
| 2026-04-21 10:39 | 47.67075 | 9.51489 | 1376 ft | 15 kts | 239° |
| 2026-04-21 10:39 | 47.67021 | 9.51350 | 1376 ft | 16 kts | 239° |
| 2026-04-21 10:40 | 47.66964 | 9.51202 | 1376 ft | 16 kts | 240° |
| 2026-04-21 10:40 | 47.66907 | 9.51050 | 1376 ft | 17 kts | 241° |
| 2026-04-21 10:40 | 47.66850 | 9.50891 | 1376 ft | 17 kts | 241° |
| 2026-04-21 10:40 | 47.66771 | 9.50750 | 1376 ft | 18 kts | 215° |
| 2026-04-21 10:41 | 47.66668 | 9.50643 | 1376 ft | 18 kts | 234° |
| 2026-04-21 10:41 | 47.66603 | 9.50477 | 1376 ft | 18 kts | 239° |
| 2026-04-21 10:41 | 47.66538 | 9.50308 | 1376 ft | 19 kts | 240° |
| 2026-04-21 10:41 | 47.66475 | 9.50134 | 1376 ft | 19 kts | 253° |
| 2026-04-21 10:42 | 47.66510 | 9.49950 | 1376 ft | 19 kts | 303° |
| 2026-04-21 10:42 | 47.66592 | 9.49825 | 1376 ft | 15 kts | 348° |
| 2026-04-21 10:42 | 47.66645 | 9.49890 | 1376 ft | 3 kts | 61° |
| 2026-04-21 10:42 | 47.66646 | 9.49895 | 1376 ft | 1 kts | 61° |
| 2026-04-21 10:43 | 47.66651 | 9.49908 | 1376 ft | 1 kts | 61° |
| 2026-04-21 10:43 | 47.66692 | 9.50017 | 1376 ft | 39 kts | 59° |
| 2026-04-21 10:43 | 47.66969 | 9.50727 | 1376 ft | 115 kts | 59° |
| 2026-04-21 10:43 | 47.67473 | 9.52006 | 1510 ft | 160 kts | 57° |
| 2026-04-21 10:44 | 47.68024 | 9.53383 | 2263 ft | 155 kts | 57° |
| 2026-04-21 10:44 | 47.68578 | 9.54697 | 3081 ft | 152 kts | 56° |
| 2026-04-21 10:44 | 47.69091 | 9.56011 | 3797 ft | 149 kts | 59° |
| 2026-04-21 10:44 | 47.69614 | 9.57396 | 4307 ft | 161 kts | 58° |
| 2026-04-21 10:45 | 47.70224 | 9.58833 | 4846 ft | 171 kts | 46° |
| 2026-04-21 10:45 | 47.71278 | 9.59752 | 5363 ft | 184 kts | 12° |
| 2026-04-21 10:45 | 47.72569 | 9.59554 | 5885 ft | 199 kts | 335° |
| 2026-04-21 10:45 | 47.73647 | 9.58157 | 6339 ft | 219 kts | 312° |
| 2026-04-21 10:46 | 47.74658 | 9.56321 | 6836 ft | 237 kts | 309° |
| 2026-04-21 10:46 | 47.75649 | 9.54409 | 7833 ft | 233 kts | 308° |
| 2026-04-21 10:46 | 47.76590 | 9.52606 | 8834 ft | 228 kts | 308° |
| 2026-04-21 10:46 | 47.77575 | 9.50755 | 9744 ft | 228 kts | 308° |
| 2026-04-21 10:47 | 47.78558 | 9.48926 | 10594 ft | 229 kts | 308° |
| 2026-04-21 10:47 | 47.79585 | 9.47151 | 11408 ft | 232 kts | 319° |
| 2026-04-21 10:47 | 47.81010 | 9.46065 | 12172 ft | 237 kts | 346° |
| 2026-04-21 10:47 | 47.82705 | 9.45699 | 12686 ft | 254 kts | 352° |
| 2026-04-21 10:48 | 47.84524 | 9.45405 | 13137 ft | 271 kts | 352° |
| 2026-04-21 10:48 | 47.86463 | 9.45092 | 13568 ft | 289 kts | 351° |
| 2026-04-21 10:48 | 47.88511 | 9.44751 | 14052 ft | 303 kts | 351° |
| 2026-04-21 10:48 | 47.90604 | 9.44393 | 14823 ft | 307 kts | 352° |
| 2026-04-21 10:49 | 47.92726 | 9.44023 | 15626 ft | 310 kts | 352° |
| 2026-04-21 10:49 | 47.94881 | 9.43646 | 16370 ft | 314 kts | 352° |
| 2026-04-21 10:49 | 47.97073 | 9.43261 | 17103 ft | 318 kts | 352° |
| 2026-04-21 10:49 | 47.99249 | 9.42877 | 17789 ft | 321 kts | 352° |
| 2026-04-21 10:50 | 48.01500 | 9.42479 | 18508 ft | 324 kts | 352° |
| 2026-04-21 10:50 | 48.03725 | 9.42084 | 19217 ft | 327 kts | 352° |
| 2026-04-21 10:50 | 48.06010 | 9.41681 | 19900 ft | 330 kts | 351° |
| 2026-04-21 10:50 | 48.08280 | 9.41278 | 20594 ft | 332 kts | 351° |
| 2026-04-21 10:51 | 48.10493 | 9.40884 | 21244 ft | 334 kts | 351° |
| 2026-04-21 10:51 | 48.12864 | 9.40461 | 21919 ft | 337 kts | 351° |
| 2026-04-21 10:51 | 48.15179 | 9.40047 | 22585 ft | 339 kts | 351° |
| 2026-04-21 10:51 | 48.17551 | 9.39621 | 23201 ft | 342 kts | 351° |
| 2026-04-21 10:52 | 48.19918 | 9.39197 | 23810 ft | 344 kts | 351° |
| 2026-04-21 10:52 | 48.22304 | 9.38770 | 24414 ft | 347 kts | 350° |
| 2026-04-21 10:52 | 48.24654 | 9.38347 | 24973 ft | 348 kts | 350° |
| 2026-04-21 10:52 | 48.27061 | 9.37915 | 25526 ft | 351 kts | 350° |
| 2026-04-21 10:53 | 48.29470 | 9.37482 | 26027 ft | 353 kts | 349° |
| 2026-04-21 10:53 | 48.31880 | 9.37048 | 26559 ft | 354 kts | 349° |
| 2026-04-21 10:53 | 48.34312 | 9.36608 | 27053 ft | 356 kts | 349° |
| 2026-04-21 10:53 | 48.36803 | 9.36221 | 27504 ft | 360 kts | 352° |
| 2026-04-21 10:54 | 48.39324 | 9.36044 | 27955 ft | 364 kts | 354° |
| 2026-04-21 10:54 | 48.41854 | 9.35943 | 28402 ft | 366 kts | 354° |
| 2026-04-21 10:54 | 48.44335 | 9.35850 | 28832 ft | 368 kts | 354° |
| 2026-04-21 10:54 | 48.46792 | 9.35756 | 29218 ft | 371 kts | 354° |
| 2026-04-21 10:55 | 48.48907 | 9.35678 | 29529 ft | 373 kts | 354° |
| 2026-04-21 10:55 | 48.57165 | 9.35367 | 30740 ft | 379 kts | 353° |
| 2026-04-21 10:56 | 48.59692 | 9.35269 | 31061 ft | 382 kts | 354° |